createdAt,value
2022-11-21T00:00:19.051Z,0.50
2022-11-21T00:00:52.739Z,0.50
2022-11-21T00:01:29.671Z,0.53
2022-11-21T00:02:01.947Z,0.67
2022-11-21T00:02:34.224Z,0.50
2022-11-21T00:03:09.169Z,0.50
2022-11-21T00:03:41.553Z,0.50
2022-11-21T00:04:13.822Z,0.47
2022-11-21T00:04:48.725Z,0.43
2022-11-21T00:05:20.971Z,0.43
2022-11-21T00:05:53.220Z,0.70
2022-11-21T00:06:28.139Z,0.50
2022-11-21T00:07:00.425Z,0.50
2022-11-21T00:07:32.810Z,0.40
2022-11-21T00:08:08.430Z,0.47
2022-11-21T00:08:40.716Z,0.53
2022-11-21T00:09:15.621Z,0.50
2022-11-21T00:09:47.887Z,0.70
2022-11-21T00:10:20.177Z,0.60
2022-11-21T00:10:52.484Z,0.53
2022-11-21T00:11:27.361Z,0.50
2022-11-21T00:11:59.609Z,0.50
2022-11-21T00:12:31.871Z,0.50
2022-11-21T00:13:06.905Z,0.60
2022-11-21T00:13:39.362Z,0.53
2022-11-21T00:14:14.282Z,0.50
2022-11-21T00:14:49.205Z,0.60
2022-11-21T00:15:21.663Z,0.63
2022-11-21T00:15:53.967Z,0.50
2022-11-21T00:16:28.909Z,0.60
2022-11-21T00:17:01.173Z,0.50
2022-11-21T00:17:33.516Z,0.50
2022-11-21T00:18:06.124Z,0.50
2022-11-21T00:18:41.789Z,0.50
2022-11-21T00:19:14.077Z,0.50
2022-11-21T00:19:46.331Z,0.50
2022-11-21T00:20:22.127Z,0.50
2022-11-21T00:20:54.371Z,0.70
2022-11-21T00:21:26.700Z,0.50
2022-11-21T00:22:01.576Z,0.50
2022-11-21T00:22:33.932Z,0.50
2022-11-21T00:23:06.447Z,0.50
2022-11-21T00:23:41.432Z,0.50
2022-11-21T00:24:13.904Z,0.60
2022-11-21T00:24:49.468Z,0.73
2022-11-21T00:25:26.619Z,0.50
2022-11-21T00:25:58.977Z,0.70
2022-11-21T00:26:31.231Z,0.40
2022-11-21T00:27:06.141Z,0.60
2022-11-21T00:27:38.429Z,0.50
2022-11-21T00:28:10.699Z,0.50
2022-11-21T00:28:45.588Z,0.50
2022-11-21T00:29:20.958Z,0.53
2022-11-21T00:29:53.274Z,0.50
2022-11-21T00:30:28.316Z,0.60
2022-11-21T00:31:00.659Z,0.50
2022-11-21T00:31:35.566Z,0.50
2022-11-21T00:32:07.848Z,0.50
2022-11-21T00:32:40.319Z,0.60
2022-11-21T00:33:12.613Z,0.50
2022-11-21T00:33:47.604Z,0.60
2022-11-21T00:34:19.862Z,0.60
2022-11-21T00:34:52.137Z,0.57
2022-11-21T00:35:27.237Z,0.80
2022-11-21T00:35:59.519Z,0.50
2022-11-21T00:36:31.762Z,0.43
2022-11-21T00:37:06.641Z,0.60
2022-11-21T00:37:38.892Z,0.50
2022-11-21T00:38:11.162Z,0.50
2022-11-21T00:38:46.133Z,0.60
2022-11-21T00:39:18.513Z,0.40
2022-11-21T00:39:50.877Z,0.40
2022-11-21T00:40:25.760Z,0.50
2022-11-21T00:40:58.072Z,0.50
2022-11-21T00:41:30.321Z,0.50
2022-11-21T00:42:05.245Z,0.47
2022-11-21T00:42:37.515Z,0.53
2022-11-21T00:43:09.997Z,0.57
2022-11-21T00:43:44.927Z,0.40
2022-11-21T00:44:19.846Z,0.50
2022-11-21T00:44:52.129Z,0.43
2022-11-21T00:45:26.988Z,0.50
2022-11-21T00:46:01.491Z,0.50
2022-11-21T00:46:33.783Z,0.40
2022-11-21T00:47:08.743Z,0.50
2022-11-21T00:47:41.009Z,0.50
2022-11-21T00:48:13.265Z,0.50
2022-11-21T00:48:48.170Z,0.50
2022-11-21T00:49:20.508Z,0.50
2022-11-21T00:49:52.764Z,0.40
2022-11-21T00:50:25.021Z,0.90
2022-11-21T00:51:00.767Z,0.50
2022-11-21T00:51:33.325Z,0.50
2022-11-21T00:52:05.580Z,0.50
2022-11-21T00:52:40.541Z,0.50
2022-11-21T00:53:13.066Z,0.40
2022-11-21T00:53:45.388Z,0.50
2022-11-21T00:54:20.382Z,0.60
2022-11-21T00:54:52.672Z,0.60
2022-11-21T00:55:25.628Z,0.43
2022-11-21T00:56:00.800Z,0.40
2022-11-21T00:56:33.064Z,0.50
2022-11-21T00:57:05.311Z,0.50
2022-11-21T00:57:40.211Z,0.50
2022-11-21T00:58:12.472Z,0.30
2022-11-21T00:58:44.760Z,0.43
2022-11-21T00:59:22.338Z,0.40
2022-11-21T00:59:54.626Z,0.50
2022-11-21T01:00:26.993Z,0.50
2022-11-21T01:01:07.148Z,0.40
2022-11-21T01:01:39.497Z,0.60
2022-11-21T01:02:14.395Z,0.40
2022-11-21T01:02:46.652Z,0.50
2022-11-21T01:03:19.020Z,0.50
2022-11-21T01:03:53.935Z,0.50
2022-11-21T01:04:26.554Z,0.40
2022-11-21T01:04:59.038Z,0.43
2022-11-21T01:05:35.085Z,0.40
2022-11-21T01:06:09.275Z,0.50
2022-11-21T01:06:41.652Z,0.40
2022-11-21T01:07:17.100Z,0.40
2022-11-21T01:07:49.430Z,0.40
2022-11-21T01:08:21.688Z,0.40
2022-11-21T01:08:56.616Z,0.50
2022-11-21T01:09:28.897Z,0.40
2022-11-21T01:10:01.188Z,0.50
2022-11-21T01:10:37.202Z,0.60
2022-11-21T01:11:11.507Z,0.50
2022-11-21T01:11:43.856Z,0.50
2022-11-21T01:12:18.792Z,0.60
2022-11-21T01:12:51.047Z,0.47
2022-11-21T01:13:23.400Z,0.50
2022-11-21T01:13:58.384Z,0.40
2022-11-21T01:14:33.301Z,0.40
2022-11-21T01:15:07.029Z,0.50
2022-11-21T01:15:41.943Z,0.50
2022-11-21T01:16:16.284Z,0.50
2022-11-21T01:16:48.590Z,0.50
2022-11-21T01:17:23.518Z,0.50
2022-11-21T01:17:55.815Z,0.43
2022-11-21T01:18:28.112Z,0.40
2022-11-21T01:19:03.587Z,0.60
2022-11-21T01:19:35.972Z,0.40
2022-11-21T01:20:09.620Z,0.50
2022-11-21T01:20:44.501Z,0.50
2022-11-21T01:21:18.040Z,0.50
2022-11-21T01:21:50.339Z,0.50
2022-11-21T01:22:23.259Z,0.50
2022-11-21T01:22:58.184Z,0.60
2022-11-21T01:23:30.706Z,0.40
2022-11-21T01:24:03.651Z,0.50
2022-11-21T01:24:38.556Z,0.40
2022-11-21T01:25:10.823Z,0.47
2022-11-21T01:25:43.080Z,0.50
2022-11-21T01:26:19.962Z,0.40
2022-11-21T01:26:53.742Z,0.60
2022-11-21T01:27:26.017Z,0.40
2022-11-21T01:28:00.900Z,0.60
2022-11-21T01:28:33.489Z,0.50
2022-11-21T01:29:06.967Z,0.40
2022-11-21T01:29:44.521Z,0.40
2022-11-21T01:30:17.508Z,0.50
2022-11-21T01:30:49.764Z,0.50
2022-11-21T01:31:26.732Z,0.50
2022-11-21T01:31:59.003Z,0.50
2022-11-21T01:32:31.253Z,0.50
2022-11-21T01:33:06.166Z,0.50
2022-11-21T01:33:38.986Z,0.40
2022-11-21T01:34:11.525Z,0.47
2022-11-21T01:34:46.458Z,0.40
2022-11-21T01:35:18.967Z,0.47
2022-11-21T01:35:51.240Z,0.50
2022-11-21T01:36:27.633Z,0.47
2022-11-21T01:37:01.385Z,0.47
2022-11-21T01:37:33.644Z,0.40
2022-11-21T01:38:08.562Z,0.50
2022-11-21T01:38:41.722Z,0.40
2022-11-21T01:39:14.013Z,0.40
2022-11-21T01:39:48.941Z,0.37
2022-11-21T01:40:21.192Z,0.50
2022-11-21T01:40:53.484Z,0.40
2022-11-21T01:41:28.544Z,0.40
2022-11-21T01:42:03.777Z,0.47
2022-11-21T01:42:49.991Z,0.40
2022-11-21T01:43:22.248Z,0.40
2022-11-21T01:43:57.284Z,0.50
2022-11-21T01:44:50.643Z,0.50
2022-11-21T01:46:04.535Z,0.50
2022-11-21T01:46:36.819Z,0.40
2022-11-21T01:47:09.077Z,0.50
2022-11-21T01:47:43.935Z,0.50
2022-11-21T01:48:16.248Z,0.50
2022-11-21T01:48:51.654Z,0.40
2022-11-21T01:49:29.479Z,0.40
2022-11-21T01:50:01.783Z,0.40
2022-11-21T01:50:34.047Z,0.43
2022-11-21T01:51:09.316Z,0.40
2022-11-21T01:51:49.162Z,0.50
2022-11-21T01:52:25.154Z,0.40
2022-11-21T01:52:57.409Z,0.40
2022-11-21T01:53:29.927Z,0.47
2022-11-21T01:54:10.664Z,0.40
2022-11-21T01:54:45.298Z,0.40
2022-11-21T01:55:17.586Z,0.50
2022-11-21T01:55:53.021Z,0.40
2022-11-21T01:56:26.267Z,0.40
2022-11-21T01:57:01.148Z,0.43
2022-11-21T01:57:38.458Z,0.30
2022-11-21T01:58:10.901Z,0.60
2022-11-21T01:58:43.774Z,0.40
2022-11-21T01:59:22.077Z,0.40
2022-11-21T01:59:59.643Z,0.50
2022-11-21T02:00:37.147Z,0.50
2022-11-21T02:01:12.203Z,0.60
2022-11-21T02:01:46.883Z,0.50
2022-11-21T02:02:23.428Z,0.50
2022-11-21T02:03:01.240Z,0.40
2022-11-21T02:03:34.989Z,0.50
2022-11-21T02:04:08.393Z,0.40
2022-11-21T02:04:45.192Z,0.40
2022-11-21T02:05:19.887Z,0.50
2022-11-21T02:05:53.159Z,0.40
2022-11-21T02:06:28.697Z,0.50
2022-11-21T02:07:02.721Z,0.40
2022-11-21T02:07:36.562Z,0.40
2022-11-21T02:08:16.009Z,0.40
2022-11-21T02:08:48.374Z,0.40
2022-11-21T02:09:21.509Z,0.60
2022-11-21T02:09:58.815Z,0.60
2022-11-21T02:10:31.078Z,0.60
2022-11-21T02:11:09.485Z,0.40
2022-11-21T02:11:47.416Z,0.50
2022-11-21T02:12:31.234Z,0.40
2022-11-21T02:13:03.541Z,0.40
2022-11-21T02:13:38.418Z,0.50
2022-11-21T02:14:12.060Z,0.60
2022-11-21T02:14:44.825Z,0.50
2022-11-21T02:15:24.056Z,0.40
2022-11-21T02:15:56.411Z,0.50
2022-11-21T02:16:29.251Z,0.40
2022-11-21T02:17:07.843Z,0.40
2022-11-21T02:17:40.146Z,0.50
2022-11-21T02:18:12.414Z,0.50
2022-11-21T02:18:47.379Z,0.40
2022-11-21T02:19:24.864Z,0.40
2022-11-21T02:19:58.903Z,0.50
2022-11-21T02:20:31.316Z,0.40
2022-11-21T02:21:11.202Z,0.40
2022-11-21T02:21:51.188Z,0.40
2022-11-21T02:22:33.283Z,0.50
2022-11-21T02:23:12.850Z,0.47
2022-11-21T02:23:49.876Z,0.47
2022-11-21T02:24:31.099Z,0.40
2022-11-21T02:25:09.944Z,0.40
2022-11-21T02:25:43.738Z,0.40
2022-11-21T02:26:18.716Z,0.40
2022-11-21T02:26:51.035Z,0.47
2022-11-21T02:27:23.338Z,0.40
2022-11-21T02:28:01.847Z,0.50
2022-11-21T02:28:34.722Z,0.43
2022-11-21T02:29:07.103Z,0.40
2022-11-21T02:29:42.465Z,0.50
2022-11-21T02:30:14.927Z,0.40
2022-11-21T02:30:47.398Z,0.50
2022-11-21T02:31:22.301Z,0.50
2022-11-21T02:31:54.548Z,0.50
2022-11-21T02:32:33.328Z,0.50
2022-11-21T02:33:08.857Z,0.30
2022-11-21T02:33:41.145Z,0.40
2022-11-21T02:34:13.607Z,0.50
2022-11-21T02:34:48.537Z,0.50
2022-11-21T02:35:20.786Z,0.40
2022-11-21T02:35:59.879Z,0.50
2022-11-21T02:36:45.047Z,0.60
2022-11-21T02:37:17.661Z,0.40
2022-11-21T02:37:53.793Z,0.50
2022-11-21T02:38:31.771Z,0.50
2022-11-21T02:39:04.436Z,0.50
2022-11-21T02:39:37.369Z,0.50
2022-11-21T02:40:18.280Z,0.47
2022-11-21T02:40:54.234Z,0.40
2022-11-21T02:41:27.544Z,0.40
2022-11-21T02:42:08.360Z,0.50
2022-11-21T02:42:42.557Z,0.60
2022-11-21T02:43:17.060Z,0.50
2022-11-21T02:43:56.015Z,0.40
2022-11-21T02:44:32.029Z,0.40
2022-11-21T02:45:09.292Z,0.40
2022-11-21T02:45:45.541Z,0.50
2022-11-21T02:46:17.853Z,0.50
2022-11-21T02:46:51.553Z,0.47
2022-11-21T02:47:26.858Z,0.40
2022-11-21T02:48:03.704Z,0.47
2022-11-21T02:48:37.281Z,0.50
2022-11-21T02:49:12.812Z,0.50
2022-11-21T02:49:49.764Z,0.40
2022-11-21T02:50:26.024Z,0.40
2022-11-21T02:51:00.942Z,0.50
2022-11-21T02:51:33.290Z,0.50
2022-11-21T02:52:05.664Z,0.43
2022-11-21T02:52:37.927Z,0.40
2022-11-21T02:53:14.491Z,0.43
2022-11-21T02:53:46.930Z,0.40
2022-11-21T02:54:19.296Z,0.47
2022-11-21T02:54:54.212Z,0.40
2022-11-21T02:55:29.260Z,0.50
2022-11-21T02:56:01.596Z,0.40
2022-11-21T02:56:37.052Z,0.50
2022-11-21T02:57:09.896Z,0.40
2022-11-21T02:57:42.536Z,0.50
2022-11-21T02:58:17.573Z,0.50
2022-11-21T02:58:49.832Z,0.50
2022-11-21T02:59:22.083Z,0.40
2022-11-21T02:59:57.001Z,0.40
2022-11-21T03:00:29.342Z,0.50
2022-11-21T03:01:01.744Z,0.50
2022-11-21T03:01:37.121Z,0.40
2022-11-21T03:02:09.437Z,0.50
2022-11-21T03:02:41.800Z,0.50
2022-11-21T03:03:16.734Z,0.50
2022-11-21T03:03:49.004Z,0.40
2022-11-21T03:04:21.311Z,0.40
2022-11-21T03:04:56.232Z,0.60
2022-11-21T03:05:28.680Z,0.40
2022-11-21T03:06:00.960Z,0.43
2022-11-21T03:06:33.209Z,0.40
2022-11-21T03:07:08.351Z,0.40
2022-11-21T03:07:40.784Z,0.50
2022-11-21T03:08:13.064Z,0.50
2022-11-21T03:08:48.052Z,0.50
2022-11-21T03:09:20.337Z,0.60
2022-11-21T03:09:52.659Z,0.50
2022-11-21T03:10:25.011Z,0.40
2022-11-21T03:11:02.524Z,0.47
2022-11-21T03:11:34.837Z,0.40
2022-11-21T03:12:07.761Z,0.40
2022-11-21T03:12:43.591Z,0.47
2022-11-21T03:13:15.941Z,0.50
2022-11-21T03:13:48.235Z,0.50
2022-11-21T03:14:23.175Z,0.50
2022-11-21T03:14:55.409Z,0.40
2022-11-21T03:15:28.677Z,0.50
2022-11-21T03:16:03.584Z,0.50
2022-11-21T03:16:35.860Z,0.40
2022-11-21T03:17:08.223Z,0.40
2022-11-21T03:17:43.530Z,0.43
2022-11-21T03:18:15.844Z,0.40
2022-11-21T03:18:48.161Z,0.40
2022-11-21T03:19:23.083Z,0.50
2022-11-21T03:19:55.332Z,0.50
2022-11-21T03:20:27.608Z,0.40
2022-11-21T03:21:02.664Z,0.50
2022-11-21T03:21:35.040Z,0.47
2022-11-21T03:22:07.462Z,0.40
2022-11-21T03:22:42.426Z,0.47
2022-11-21T03:23:14.711Z,0.50
2022-11-21T03:23:47.126Z,0.40
2022-11-21T03:24:22.039Z,0.50
2022-11-21T03:24:54.338Z,0.40
2022-11-21T03:25:26.804Z,0.50
2022-11-21T03:26:04.748Z,0.40
2022-11-21T03:26:37.018Z,0.60
2022-11-21T03:27:09.296Z,0.40
2022-11-21T03:27:44.188Z,0.40
2022-11-21T03:28:16.464Z,0.40
2022-11-21T03:28:48.763Z,0.40
2022-11-21T03:29:23.665Z,0.40
2022-11-21T03:29:55.975Z,0.40
2022-11-21T03:30:28.303Z,0.50
2022-11-21T03:31:03.210Z,0.50
2022-11-21T03:31:35.622Z,0.43
2022-11-21T03:32:08.112Z,0.40
2022-11-21T03:32:42.996Z,0.60
2022-11-21T03:33:15.265Z,0.40
2022-11-21T03:33:47.531Z,0.50
2022-11-21T03:34:22.546Z,0.40
2022-11-21T03:34:54.812Z,0.40
2022-11-21T03:35:27.120Z,0.40
2022-11-21T03:36:02.010Z,0.50
2022-11-21T03:36:34.272Z,0.50
2022-11-21T03:37:06.682Z,0.50
2022-11-21T03:37:41.620Z,0.40
2022-11-21T03:38:13.942Z,0.40
2022-11-21T03:38:46.203Z,0.40
2022-11-21T03:39:21.140Z,0.40
2022-11-21T03:39:53.392Z,0.40
2022-11-21T03:40:25.775Z,0.43
2022-11-21T03:41:00.660Z,0.40
2022-11-21T03:41:35.595Z,0.50
2022-11-21T03:42:07.863Z,0.50
2022-11-21T03:42:42.803Z,0.50
2022-11-21T03:43:15.103Z,0.40
2022-11-21T03:43:47.356Z,0.40
2022-11-21T03:44:22.247Z,0.47
2022-11-21T03:44:54.553Z,0.40
2022-11-21T03:45:26.845Z,0.57
2022-11-21T03:46:01.838Z,0.40
2022-11-21T03:46:36.720Z,0.40
2022-11-21T03:47:08.975Z,0.40
2022-11-21T03:47:44.239Z,0.47
2022-11-21T03:48:16.479Z,0.50
2022-11-21T03:48:48.808Z,0.50
2022-11-21T03:49:23.711Z,0.40
2022-11-21T03:49:55.974Z,0.40
2022-11-21T03:50:28.289Z,0.50
2022-11-21T03:51:03.168Z,0.50
2022-11-21T03:51:36.201Z,0.57
2022-11-21T03:52:08.460Z,0.50
2022-11-21T03:52:43.587Z,0.60
2022-11-21T03:53:15.860Z,0.60
2022-11-21T03:53:48.187Z,0.40
2022-11-21T03:54:23.087Z,0.50
2022-11-21T03:54:55.401Z,0.40
2022-11-21T03:55:27.716Z,0.40
2022-11-21T03:56:02.650Z,0.40
2022-11-21T03:56:39.900Z,0.40
2022-11-21T03:57:12.162Z,0.40
2022-11-21T03:57:47.076Z,0.50
2022-11-21T03:58:19.332Z,0.40
2022-11-21T03:58:51.968Z,0.50
2022-11-21T03:59:26.864Z,0.40
2022-11-21T03:59:59.129Z,0.40
2022-11-21T04:00:31.508Z,0.40
2022-11-21T04:01:06.627Z,0.40
2022-11-21T04:01:39.182Z,0.40
2022-11-21T04:02:11.584Z,0.40
2022-11-21T04:02:46.499Z,0.50
2022-11-21T04:03:18.759Z,0.40
2022-11-21T04:03:51.489Z,0.50
2022-11-21T04:04:26.688Z,0.50
2022-11-21T04:04:59.209Z,0.50
2022-11-21T04:05:31.517Z,0.50
2022-11-21T04:06:06.633Z,0.40
2022-11-21T04:06:38.921Z,0.50
2022-11-21T04:07:14.025Z,0.40
2022-11-21T04:07:46.488Z,0.40
2022-11-21T04:08:18.770Z,0.50
2022-11-21T04:08:53.936Z,0.40
2022-11-21T04:09:26.192Z,0.50
2022-11-21T04:09:58.504Z,0.50
2022-11-21T04:10:33.417Z,0.40
2022-11-21T04:11:06.015Z,0.40
2022-11-21T04:11:40.940Z,0.40
2022-11-21T04:12:16.023Z,0.43
2022-11-21T04:12:48.281Z,0.50
2022-11-21T04:13:20.782Z,0.50
2022-11-21T04:13:55.947Z,0.40
2022-11-21T04:14:28.357Z,0.50
2022-11-21T04:15:00.735Z,0.60
2022-11-21T04:15:32.987Z,0.40
2022-11-21T04:16:08.556Z,0.53
2022-11-21T04:16:40.803Z,0.40
2022-11-21T04:17:13.096Z,0.40
2022-11-21T04:17:48.169Z,0.40
2022-11-21T04:18:20.435Z,0.40
2022-11-21T04:18:52.694Z,0.47
2022-11-21T04:19:27.601Z,0.43
2022-11-21T04:19:59.844Z,0.60
2022-11-21T04:20:32.114Z,0.50
2022-11-21T04:21:09.100Z,0.40
2022-11-21T04:21:41.355Z,0.40
2022-11-21T04:22:13.680Z,0.40
2022-11-21T04:22:48.668Z,0.40
2022-11-21T04:23:20.964Z,0.40
2022-11-21T04:23:53.280Z,0.47
2022-11-21T04:24:28.648Z,0.40
2022-11-21T04:25:01.082Z,0.50
2022-11-21T04:25:34.065Z,0.50
2022-11-21T04:26:09.004Z,0.40
2022-11-21T04:26:43.873Z,0.40
2022-11-21T04:27:16.172Z,0.50
2022-11-21T04:27:51.142Z,0.50
2022-11-21T04:28:23.688Z,0.40
2022-11-21T04:28:55.984Z,0.50
2022-11-21T04:29:30.904Z,0.50
2022-11-21T04:30:03.485Z,0.83
2022-11-21T04:30:35.749Z,0.63
2022-11-21T04:31:11.053Z,0.50
2022-11-21T04:31:46.280Z,0.50
2022-11-21T04:32:18.580Z,0.40
2022-11-21T04:32:51.296Z,0.60
2022-11-21T04:33:26.196Z,0.50
2022-11-21T04:33:58.475Z,0.50
2022-11-21T04:34:30.925Z,0.40
2022-11-21T04:35:06.060Z,0.50
2022-11-21T04:35:38.388Z,0.40
2022-11-21T04:36:10.795Z,0.50
2022-11-21T04:36:43.234Z,0.50
2022-11-21T04:37:18.252Z,0.40
2022-11-21T04:37:50.677Z,0.60
2022-11-21T04:38:22.923Z,0.40
2022-11-21T04:38:57.840Z,0.43
2022-11-21T04:39:30.088Z,0.40
2022-11-21T04:40:02.426Z,0.50
2022-11-21T04:40:35.564Z,0.60
2022-11-21T04:41:10.501Z,0.40
2022-11-21T04:41:45.396Z,0.40
2022-11-21T04:42:17.688Z,0.40
2022-11-21T04:42:52.640Z,0.40
2022-11-21T04:43:24.927Z,0.43
2022-11-21T04:43:57.177Z,0.40
2022-11-21T04:44:32.088Z,0.40
2022-11-21T04:45:05.698Z,0.50
2022-11-21T04:45:37.985Z,0.40
2022-11-21T04:46:12.897Z,0.40
2022-11-21T04:46:45.194Z,0.33
2022-11-21T04:47:17.502Z,0.40
2022-11-21T04:47:52.596Z,0.40
2022-11-21T04:48:24.979Z,0.40
2022-11-21T04:48:57.244Z,0.33
2022-11-21T04:49:32.136Z,0.40
2022-11-21T04:50:05.309Z,0.57
2022-11-21T04:50:37.631Z,0.40
2022-11-21T04:51:12.531Z,0.40
2022-11-21T04:51:44.796Z,0.40
2022-11-21T04:52:17.098Z,0.40
2022-11-21T04:52:55.924Z,0.50
2022-11-21T04:53:28.220Z,0.40
2022-11-21T04:54:00.484Z,0.50
2022-11-21T04:54:35.416Z,0.40
2022-11-21T04:55:08.838Z,0.40
2022-11-21T04:55:41.129Z,0.40
2022-11-21T04:56:17.189Z,0.40
2022-11-21T04:56:52.131Z,0.30
2022-11-21T04:57:24.665Z,0.40
2022-11-21T04:57:57.133Z,0.50
2022-11-21T04:58:32.045Z,0.40
2022-11-21T04:59:04.403Z,0.40
2022-11-21T04:59:36.708Z,0.40
2022-11-21T05:00:12.996Z,0.40
2022-11-21T05:00:45.245Z,0.43
2022-11-21T05:01:20.262Z,0.40
2022-11-21T05:01:52.688Z,0.40
2022-11-21T05:02:25.091Z,0.50
2022-11-21T05:03:05.135Z,0.57
2022-11-21T05:03:37.718Z,0.50
2022-11-21T05:04:09.980Z,0.40
2022-11-21T05:04:44.888Z,1.63
2022-11-21T05:05:17.231Z,0.57
2022-11-21T05:05:52.169Z,0.47
2022-11-21T05:06:24.399Z,0.50
2022-11-21T05:06:56.651Z,0.77
2022-11-21T05:07:31.593Z,3.73
2022-11-21T05:08:04.101Z,3.73
2022-11-21T05:08:36.492Z,1.60
2022-11-21T05:09:08.992Z,1.30
2022-11-21T05:09:44.336Z,0.80
2022-11-21T05:10:16.820Z,1.47
2022-11-21T05:11:04.073Z,1.20
2022-11-21T05:11:51.316Z,1.13
2022-11-21T05:12:41.224Z,0.60
2022-11-21T05:13:22.360Z,0.77
2022-11-21T05:13:57.609Z,1.10
2022-11-21T05:14:30.096Z,0.70
2022-11-21T05:15:02.496Z,0.50
2022-11-21T05:15:34.760Z,0.57
2022-11-21T05:16:09.709Z,0.40
2022-11-21T05:16:41.967Z,0.40
2022-11-21T05:17:14.280Z,1.57
2022-11-21T05:17:49.209Z,2.93
2022-11-21T05:18:21.485Z,1.23
2022-11-21T05:18:53.759Z,0.73
2022-11-21T05:19:28.691Z,1.13
2022-11-21T05:20:01.100Z,1.67
2022-11-21T05:20:36.726Z,0.50
2022-11-21T05:21:11.928Z,1.20
2022-11-21T05:21:44.228Z,0.57
2022-11-21T05:22:16.480Z,0.90
2022-11-21T05:22:54.615Z,0.60
2022-11-21T05:23:26.943Z,0.40
2022-11-21T05:23:59.345Z,0.40
2022-11-21T05:24:34.287Z,0.40
2022-11-21T05:25:07.245Z,0.40
2022-11-21T05:25:40.622Z,0.50
2022-11-21T05:26:15.558Z,0.40
2022-11-21T05:26:47.888Z,0.47
2022-11-21T05:27:20.150Z,0.50
2022-11-21T05:27:58.711Z,0.40
2022-11-21T05:28:31.013Z,0.50
2022-11-21T05:29:06.132Z,0.40
2022-11-21T05:29:38.395Z,0.40
2022-11-21T05:30:12.332Z,0.40
2022-11-21T05:30:47.263Z,0.37
2022-11-21T05:31:19.529Z,0.40
2022-11-21T05:31:51.818Z,0.40
2022-11-21T05:32:26.952Z,0.40
2022-11-21T05:32:59.200Z,0.40
2022-11-21T05:33:34.097Z,0.40
2022-11-21T05:34:06.367Z,0.50
2022-11-21T05:34:38.644Z,0.40
2022-11-21T05:35:13.573Z,0.40
2022-11-21T05:35:45.907Z,0.40
2022-11-21T05:36:18.163Z,0.30
2022-11-21T05:36:57.234Z,0.40
2022-11-21T05:37:29.552Z,0.40
2022-11-21T05:38:01.884Z,0.40
2022-11-21T05:38:36.900Z,0.40
2022-11-21T05:39:09.183Z,0.40
2022-11-21T05:39:41.495Z,0.40
2022-11-21T05:40:16.462Z,0.40
2022-11-21T05:40:48.726Z,0.40
2022-11-21T05:41:23.653Z,0.30
2022-11-21T05:42:01.319Z,0.40
2022-11-21T05:42:50.097Z,0.40
2022-11-21T05:43:39.996Z,0.40
2022-11-21T05:44:14.888Z,0.30
2022-11-21T05:44:47.251Z,0.40
2022-11-21T05:45:19.493Z,0.40
2022-11-21T05:45:51.825Z,0.40
2022-11-21T05:46:29.160Z,0.40
2022-11-21T05:47:01.422Z,0.40
2022-11-21T05:47:33.780Z,0.47
2022-11-21T05:48:10.106Z,0.30
2022-11-21T05:48:42.728Z,0.43
2022-11-21T05:49:17.848Z,0.40
2022-11-21T05:49:50.173Z,0.30
2022-11-21T05:50:22.547Z,0.40
2022-11-21T05:50:57.637Z,0.50
2022-11-21T05:51:29.903Z,0.40
2022-11-21T05:52:02.166Z,0.40
2022-11-21T05:52:37.080Z,0.40
2022-11-21T05:53:09.341Z,0.30
2022-11-21T05:53:44.746Z,0.40
2022-11-21T05:54:17.467Z,0.30
2022-11-21T05:54:50.006Z,0.40
2022-11-21T05:55:24.968Z,0.50
2022-11-21T05:55:57.246Z,0.50
2022-11-21T05:56:32.131Z,0.40
2022-11-21T05:57:04.617Z,0.50
2022-11-21T05:57:36.902Z,0.40
2022-11-21T05:58:10.925Z,0.43
2022-11-21T05:58:48.990Z,0.40
2022-11-21T05:59:21.264Z,0.40
2022-11-21T05:59:53.629Z,0.50
2022-11-21T06:00:28.620Z,0.50
2022-11-21T06:01:01.420Z,0.40
2022-11-21T06:01:51.603Z,0.40
2022-11-21T06:02:38.882Z,0.40
2022-11-21T06:03:26.505Z,0.50
2022-11-21T06:03:58.777Z,0.53
2022-11-21T06:04:33.666Z,0.50
2022-11-21T06:05:06.892Z,0.40
2022-11-21T06:05:39.199Z,0.50
2022-11-21T06:06:16.381Z,0.50
2022-11-21T06:06:50.977Z,0.40
2022-11-21T06:07:23.253Z,0.50
2022-11-21T06:07:58.199Z,0.50
2022-11-21T06:08:32.163Z,0.50
2022-11-21T06:09:05.139Z,0.40
2022-11-21T06:09:40.044Z,0.40
2022-11-21T06:10:12.310Z,0.43
2022-11-21T06:10:44.660Z,0.43
2022-11-21T06:11:20.037Z,0.50
2022-11-21T06:11:52.323Z,0.40
2022-11-21T06:12:25.795Z,0.40
2022-11-21T06:13:03.125Z,0.40
2022-11-21T06:13:35.569Z,0.40
2022-11-21T06:14:13.178Z,0.40
2022-11-21T06:14:45.575Z,0.50
2022-11-21T06:15:17.878Z,0.40
2022-11-21T06:15:54.202Z,0.40
2022-11-21T06:16:29.082Z,0.40
2022-11-21T06:17:01.412Z,0.50
2022-11-21T06:17:33.672Z,0.40
2022-11-21T06:18:09.851Z,0.40
2022-11-21T06:18:43.840Z,0.40
2022-11-21T06:19:18.900Z,0.30
2022-11-21T06:19:51.148Z,0.40
2022-11-21T06:20:23.423Z,0.50
2022-11-21T06:21:04.133Z,0.40
2022-11-21T06:21:37.435Z,0.40
2022-11-21T06:22:09.750Z,0.40
2022-11-21T06:22:44.652Z,0.30
2022-11-21T06:23:16.960Z,0.40
2022-11-21T06:23:54.187Z,0.43
2022-11-21T06:24:26.547Z,0.30
2022-11-21T06:24:59.161Z,0.40
2022-11-21T06:25:34.065Z,0.40
2022-11-21T06:26:07.821Z,0.50
2022-11-21T06:26:42.752Z,0.40
2022-11-21T06:27:14.998Z,0.50
2022-11-21T06:27:47.244Z,0.40
2022-11-21T06:28:22.163Z,0.40
2022-11-21T06:28:54.867Z,0.40
2022-11-21T06:29:32.380Z,0.40
2022-11-21T06:30:05.352Z,0.40
2022-11-21T06:30:38.115Z,0.40
2022-11-21T06:31:14.568Z,0.50
2022-11-21T06:31:46.812Z,0.40
2022-11-21T06:32:19.090Z,0.33
2022-11-21T06:32:54.086Z,0.40
2022-11-21T06:33:26.408Z,0.40
2022-11-21T06:33:59.685Z,0.40
2022-11-21T06:34:34.600Z,0.40
2022-11-21T06:35:07.552Z,0.40
2022-11-21T06:35:40.157Z,0.43
2022-11-21T06:36:16.261Z,0.40
2022-11-21T06:36:49.558Z,0.40
2022-11-21T06:37:21.825Z,0.40
2022-11-21T06:37:56.709Z,0.40
2022-11-21T06:38:28.999Z,0.40
2022-11-21T06:39:01.506Z,0.50
2022-11-21T06:39:36.389Z,0.50
2022-11-21T06:40:10.331Z,0.50
2022-11-21T06:40:42.648Z,0.40
2022-11-21T06:41:19.490Z,0.40
2022-11-21T06:41:51.752Z,0.40
2022-11-21T06:42:23.998Z,0.40
2022-11-21T06:43:00.079Z,0.40
2022-11-21T06:43:32.336Z,0.30
2022-11-21T06:44:07.507Z,0.40
2022-11-21T06:44:42.373Z,0.50
2022-11-21T06:45:14.808Z,0.40
2022-11-21T06:45:49.712Z,0.50
2022-11-21T06:46:21.995Z,0.40
2022-11-21T06:46:56.927Z,0.40
2022-11-21T06:47:29.213Z,0.40
2022-11-21T06:48:02.279Z,0.40
2022-11-21T06:48:38.397Z,0.50
2022-11-21T06:49:10.711Z,0.40
2022-11-21T06:49:45.571Z,0.40
2022-11-21T06:50:17.932Z,0.40
2022-11-21T06:50:50.193Z,0.40
2022-11-21T06:51:26.416Z,0.40
2022-11-21T06:51:58.708Z,0.50
2022-11-21T06:52:33.100Z,0.40
2022-11-21T06:53:08.306Z,0.30
2022-11-21T06:53:40.634Z,0.40
2022-11-21T06:54:16.715Z,0.30
2022-11-21T06:54:52.024Z,0.33
2022-11-21T06:55:25.311Z,0.40
2022-11-21T06:55:59.161Z,0.40
2022-11-21T06:56:34.993Z,0.30
2022-11-21T06:57:07.361Z,0.40
2022-11-21T06:57:39.606Z,0.40
2022-11-21T06:58:14.523Z,0.30
2022-11-21T06:58:46.841Z,0.40
2022-11-21T06:59:19.092Z,0.30
2022-11-21T06:59:56.576Z,0.40
2022-11-21T07:00:28.934Z,0.40
2022-11-21T07:01:07.624Z,0.40
2022-11-21T07:01:39.959Z,0.60
2022-11-21T07:02:13.385Z,0.40
2022-11-21T07:02:48.440Z,0.40
2022-11-21T07:03:21.311Z,0.40
2022-11-21T07:03:53.709Z,0.40
2022-11-21T07:04:28.884Z,0.40
2022-11-21T07:05:01.292Z,0.40
2022-11-21T07:05:33.652Z,0.30
2022-11-21T07:06:09.148Z,0.40
2022-11-21T07:06:41.409Z,0.50
2022-11-21T07:07:13.707Z,0.40
2022-11-21T07:07:48.705Z,0.50
2022-11-21T07:08:20.943Z,0.40
2022-11-21T07:09:17.633Z,0.40
2022-11-21T07:09:49.096Z,0.30
2022-11-21T07:10:21.569Z,0.40
2022-11-21T07:11:23.539Z,0.40
2022-11-21T07:11:51.228Z,0.40
2022-11-21T07:12:38.485Z,0.40
2022-11-21T07:13:23.682Z,0.30
2022-11-21T07:13:58.598Z,0.40
2022-11-21T07:14:30.853Z,0.35
2022-11-21T07:15:06.615Z,0.40
2022-11-21T07:15:38.873Z,0.30
2022-11-21T07:16:15.761Z,0.37
2022-11-21T07:16:48.005Z,0.40
2022-11-21T07:17:20.297Z,0.30
2022-11-21T07:17:55.216Z,0.40
2022-11-21T07:18:27.733Z,0.40
2022-11-21T07:19:03.300Z,0.30
2022-11-21T07:19:40.634Z,0.40
2022-11-21T07:20:15.943Z,0.40
2022-11-21T07:20:48.347Z,0.40
2022-11-21T07:21:23.315Z,0.40
2022-11-21T07:21:55.631Z,0.30
2022-11-21T07:22:27.969Z,0.40
2022-11-21T07:23:03.056Z,0.40
2022-11-21T07:23:35.411Z,0.40
2022-11-21T07:24:10.612Z,0.30
2022-11-21T07:24:42.897Z,0.38
2022-11-21T07:25:15.219Z,0.40
2022-11-21T07:25:50.087Z,0.40
2022-11-21T07:26:22.476Z,0.40
2022-11-21T07:26:54.750Z,0.40
2022-11-21T07:27:29.649Z,0.43
2022-11-21T07:28:02.400Z,0.40
2022-11-21T07:28:35.284Z,0.30
2022-11-21T07:29:10.177Z,0.50
2022-11-21T07:29:42.457Z,1.88
2022-11-21T07:30:17.707Z,1.47
2022-11-21T07:30:52.618Z,1.33
2022-11-21T07:31:24.895Z,1.13
2022-11-21T07:31:57.302Z,1.23
2022-11-21T07:32:32.186Z,0.90
2022-11-21T07:33:05.848Z,0.90
2022-11-21T07:33:38.173Z,0.80
2022-11-21T07:34:13.436Z,1.10
2022-11-21T07:34:45.700Z,0.97